KLWA

South Haven Area Regional Airport

South Haven, Michigan, USA
METAR KLWA 150315Z AUTO 00000KT 10SM CLR 21/20 A2997 RMK AO2 T02120196
Observed Flight Rules
Aug-15 @ 03:15 UTC (20 minutes ago) Visual Flight Rules
Visibility Clouds
10 miles
  • Clear skies
Temperatures Readings
Current 21°C / 70°F
Dewpoint 20°C / 68°F
Humidity 94%
Altimeter 29.97" Hg
Pressure 1015 hPa
Elevation 203
METAR KLWA 150315Z AUTO 00000KT 10SM CLR 21/20 A2997 RMK AO2 T02120196
Observed Flight Rules
Aug-15 @ 03:15 UTC
(20 minutes ago)
VFR
Clouds
  • Clear skies
Temperature Dewpoint
21°C / 70°F 20°C / 68°F
Humidity Altimeter Pressure
94% 29.97" Hg 1015 hPa